createdAt,value
2022-08-21T00:02:26.491Z,-83
2022-08-21T00:04:57.441Z,-82
2022-08-21T00:07:28.251Z,-82
2022-08-21T00:09:57.256Z,-84
2022-08-21T00:12:25.958Z,-82
2022-08-21T00:14:57.039Z,-83
2022-08-21T00:17:26.925Z,-83
2022-08-21T00:19:55.539Z,-82
2022-08-21T00:22:24.193Z,-82
2022-08-21T00:24:54.113Z,-82
2022-08-21T00:27:23.150Z,-82
2022-08-21T00:29:51.837Z,-82
2022-08-21T00:32:24.237Z,-82
2022-08-21T00:34:53.295Z,-82
2022-08-21T00:37:22.991Z,-81
2022-08-21T00:39:54.413Z,-81
2022-08-21T00:42:23.462Z,-81
2022-08-21T00:44:53.169Z,-82
2022-08-21T00:47:22.190Z,-82
2022-08-21T00:49:51.044Z,-81
2022-08-21T00:52:24.200Z,-82
2022-08-21T00:54:57.759Z,-83
2022-08-21T00:57:32.493Z,-82
2022-08-21T01:00:10.633Z,-83
2022-08-21T01:02:39.599Z,-82
2022-08-21T01:05:09.487Z,-83
2022-08-21T01:07:38.893Z,-83
2022-08-21T01:10:20.619Z,-83
2022-08-21T01:12:56.124Z,-83
2022-08-21T01:15:29.594Z,-83
2022-08-21T01:17:58.308Z,-83
2022-08-21T01:20:32.816Z,-82
2022-08-21T01:23:03.883Z,-84
2022-08-21T01:25:33.682Z,-82
2022-08-21T01:28:11.499Z,-84
2022-08-21T01:30:42.912Z,-82
2022-08-21T01:33:12.120Z,-82
2022-08-21T01:35:41.022Z,-81
2022-08-21T01:38:10.987Z,-81
2022-08-21T01:40:39.648Z,-82
2022-08-21T01:43:08.222Z,-82
2022-08-21T01:45:36.897Z,-82
2022-08-21T01:48:06.406Z,-82
2022-08-21T01:50:35.078Z,-82
2022-08-21T01:53:03.686Z,-82
2022-08-21T01:55:33.728Z,-83
2022-08-21T01:58:02.927Z,-82
2022-08-21T02:00:33.219Z,-82
2022-08-21T02:03:01.761Z,-82
2022-08-21T02:05:30.279Z,-82
2022-08-21T02:07:59.117Z,-82
2022-08-21T02:10:30.832Z,-81
2022-08-21T02:13:02.666Z,-82
2022-08-21T02:15:32.374Z,-82
2022-08-21T02:18:10.520Z,-82
2022-08-21T02:20:44.362Z,-82
2022-08-21T02:23:15.052Z,-81
2022-08-21T02:25:44.394Z,-82
2022-08-21T02:28:16.747Z,-82
2022-08-21T02:30:49.679Z,-81
2022-08-21T02:33:19.017Z,-82
2022-08-21T02:35:50.402Z,-81
2022-08-21T02:38:22.870Z,-82
2022-08-21T02:40:57.136Z,-81
2022-08-21T02:43:29.576Z,-82
2022-08-21T02:46:00.140Z,-82
2022-08-21T02:48:32.109Z,-82
2022-08-21T02:51:05.509Z,-81
2022-08-21T02:53:35.313Z,-83
2022-08-21T02:56:07.493Z,-81
2022-08-21T02:58:44.067Z,-81
2022-08-21T03:01:14.085Z,-82
2022-08-21T03:03:45.916Z,-81
2022-08-21T03:06:18.450Z,-82
2022-08-21T03:08:47.858Z,-81
2022-08-21T03:11:17.622Z,-81
2022-08-21T03:13:47.592Z,-82
2022-08-21T03:16:16.315Z,-81
2022-08-21T03:18:44.861Z,-82
2022-08-21T03:21:14.259Z,-82
2022-08-21T03:23:44.004Z,-81
2022-08-21T03:26:13.467Z,-81
2022-08-21T03:28:42.624Z,-81
2022-08-21T03:31:12.504Z,-81
2022-08-21T03:33:41.207Z,-81
2022-08-21T03:36:11.525Z,-81
2022-08-21T03:38:40.730Z,-81
2022-08-21T03:41:10.153Z,-81
2022-08-21T03:43:39.527Z,-81
2022-08-21T03:46:09.262Z,-81
2022-08-21T03:48:39.854Z,-81
2022-08-21T03:51:09.166Z,-81
2022-08-21T03:53:38.484Z,-82
2022-08-21T03:56:08.036Z,-81
2022-08-21T03:58:36.644Z,-81
2022-08-21T04:01:08.222Z,-81
2022-08-21T04:03:39.738Z,-81
2022-08-21T04:06:09.582Z,-81
2022-08-21T04:08:38.297Z,-82
2022-08-21T04:11:08.596Z,-81
2022-08-21T04:13:43.236Z,-81
2022-08-21T04:16:14.205Z,-82
2022-08-21T04:18:44.460Z,-81
2022-08-21T04:21:13.998Z,-83
2022-08-21T04:23:42.656Z,-82
2022-08-21T04:26:12.723Z,-83
2022-08-21T04:28:41.303Z,-82
2022-08-21T04:31:11.186Z,-82
2022-08-21T04:33:39.727Z,-82
2022-08-21T04:36:10.793Z,-84
2022-08-21T04:38:44.607Z,-85
2022-08-21T04:41:13.560Z,-84
2022-08-21T04:43:42.377Z,-84
2022-08-21T04:46:13.486Z,-85
2022-08-21T04:48:42.703Z,-85
2022-08-21T04:51:17.518Z,-85
2022-08-21T04:53:50.478Z,-85
2022-08-21T04:56:27.242Z,-85
2022-08-21T04:59:01.029Z,-84
2022-08-21T05:01:36.117Z,-84
2022-08-21T05:04:07.572Z,-85
2022-08-21T05:06:42.130Z,-85
2022-08-21T05:09:14.877Z,-85
2022-08-21T05:11:44.183Z,-85
2022-08-21T05:14:13.631Z,-85
2022-08-21T05:16:42.831Z,-85
2022-08-21T05:19:12.231Z,-84
2022-08-21T05:21:48.438Z,-84
2022-08-21T05:24:18.829Z,-86
2022-08-21T05:26:48.088Z,-86
2022-08-21T05:29:19.027Z,-85
2022-08-21T05:31:49.286Z,-86
2022-08-21T05:34:22.963Z,-87
2022-08-21T05:36:53.178Z,-84
2022-08-21T05:39:22.006Z,-85
2022-08-21T05:41:50.533Z,-84
2022-08-21T05:44:19.033Z,-86
2022-08-21T05:46:49.146Z,-85
2022-08-21T05:49:17.788Z,-85
2022-08-21T05:51:46.269Z,-85
2022-08-21T05:54:16.559Z,-85
2022-08-21T05:56:46.664Z,-84
2022-08-21T05:59:16.694Z,-86
2022-08-21T06:01:46.669Z,-85
2022-08-21T06:04:20.531Z,-85
2022-08-21T06:06:49.932Z,-86
2022-08-21T06:09:20.143Z,-85
2022-08-21T06:11:48.648Z,-85
2022-08-21T06:14:18.052Z,-86
2022-08-21T06:16:46.514Z,-84
2022-08-21T06:19:15.578Z,-85
2022-08-21T06:21:44.208Z,-84
2022-08-21T06:24:13.162Z,-84
2022-08-21T06:26:43.397Z,-85
2022-08-21T06:29:13.641Z,-85
2022-08-21T06:31:42.773Z,-88
2022-08-21T06:34:12.052Z,-84
2022-08-21T06:36:40.655Z,-83
2022-08-21T06:39:16.299Z,-83
2022-08-21T06:41:54.575Z,-84
2022-08-21T06:44:23.253Z,-85
2022-08-21T06:46:51.802Z,-83
2022-08-21T06:49:21.521Z,-84
2022-08-21T06:51:50.376Z,-84
2022-08-21T06:54:18.935Z,-85
2022-08-21T06:56:47.551Z,-84
2022-08-21T06:59:17.492Z,-84
2022-08-21T07:01:46.650Z,-85
2022-08-21T07:04:15.543Z,-85
2022-08-21T07:06:44.911Z,-84
2022-08-21T07:09:13.632Z,-84
2022-08-21T07:11:44.189Z,-85
2022-08-21T07:14:20.039Z,-86
2022-08-21T07:16:49.475Z,-81
2022-08-21T07:19:18.111Z,-80
2022-08-21T07:21:46.626Z,-80
2022-08-21T07:24:16.058Z,-77
2022-08-21T07:26:44.555Z,-78
2022-08-21T07:29:13.092Z,-78
2022-08-21T07:31:43.014Z,-78
2022-08-21T07:34:11.515Z,-78
2022-08-21T07:36:40.015Z,-78
2022-08-21T07:39:09.250Z,-78
2022-08-21T07:41:38.664Z,-78
2022-08-21T07:44:07.103Z,-78
2022-08-21T07:46:35.591Z,-78
2022-08-21T07:49:05.839Z,-78
2022-08-21T07:51:35.623Z,-78
2022-08-21T07:54:06.670Z,-78
2022-08-21T07:56:35.991Z,-78
2022-08-21T07:59:08.447Z,-78
2022-08-21T08:01:37.062Z,-78
2022-08-21T08:04:07.078Z,-78
2022-08-21T08:06:36.072Z,-78
2022-08-21T08:09:05.420Z,-78
2022-08-21T08:11:34.107Z,-78
2022-08-21T08:14:04.896Z,-78
2022-08-21T08:16:33.373Z,-78
2022-08-21T08:19:01.924Z,-79
2022-08-21T08:21:33.687Z,-79
2022-08-21T08:24:19.404Z,-79
2022-08-21T08:26:53.390Z,-79
2022-08-21T08:29:23.297Z,-79
2022-08-21T08:31:52.019Z,-79
2022-08-21T08:34:25.310Z,-78
2022-08-21T08:36:58.906Z,-79
2022-08-21T08:39:29.457Z,-79
2022-08-21T08:42:32.744Z,-80
2022-08-21T08:45:02.854Z,-79
2022-08-21T08:47:34.702Z,-79
2022-08-21T08:50:08.065Z,-79
2022-08-21T08:52:45.309Z,-80
2022-08-21T08:55:23.174Z,-79
2022-08-21T08:57:57.685Z,-79
2022-08-21T09:00:26.998Z,-80
2022-08-21T09:03:01.167Z,-80
2022-08-21T09:05:34.944Z,-79
2022-08-21T09:08:33.168Z,-80
2022-08-21T09:11:09.310Z,-78
2022-08-21T09:13:53.181Z,-78
2022-08-21T09:16:36.968Z,-81
2022-08-21T09:19:28.430Z,-80
2022-08-21T09:22:11.049Z,-80
2022-08-21T09:24:54.288Z,-80
2022-08-21T09:27:24.243Z,-79
2022-08-21T09:29:58.596Z,-79
2022-08-21T09:32:37.737Z,-79
2022-08-21T09:35:11.907Z,-80
2022-08-21T09:37:53.861Z,-80
2022-08-21T09:40:34.940Z,-79
2022-08-21T09:43:08.141Z,-82
2022-08-21T09:45:38.043Z,-81
2022-08-21T09:48:17.368Z,-82
2022-08-21T09:50:48.587Z,-82
2022-08-21T09:53:23.326Z,-82
2022-08-21T09:56:13.561Z,-82
2022-08-21T09:58:49.819Z,-83
2022-08-21T10:01:21.952Z,-82
2022-08-21T10:04:04.587Z,-82
2022-08-21T10:06:35.866Z,-82
2022-08-21T10:09:17.923Z,-82
2022-08-21T10:12:01.124Z,-82
2022-08-21T10:14:48.968Z,-82
2022-08-21T10:17:28.735Z,-82
2022-08-21T10:20:07.113Z,-82
2022-08-21T10:22:47.456Z,-83
2022-08-21T10:25:25.397Z,-83
2022-08-21T10:28:13.754Z,-82
2022-08-21T10:30:54.386Z,-82
2022-08-21T10:33:42.437Z,-81
2022-08-21T10:36:21.354Z,-82
2022-08-21T10:39:25.896Z,-81
2022-08-21T10:42:28.525Z,-81
2022-08-21T10:45:16.175Z,-83
2022-08-21T10:47:52.956Z,-82
2022-08-21T10:50:37.124Z,-83
2022-08-21T10:53:23.310Z,-80
2022-08-21T10:56:01.649Z,-83
2022-08-21T10:58:35.898Z,-84
2022-08-21T11:01:16.512Z,-84
2022-08-21T11:03:48.306Z,-84
2022-08-21T11:06:22.896Z,-84
2022-08-21T11:09:00.727Z,-83
2022-08-21T11:11:36.122Z,-84
2022-08-21T11:14:16.396Z,-83
2022-08-21T11:16:58.035Z,-84
2022-08-21T11:19:35.508Z,-83
2022-08-21T11:22:16.684Z,-83
2022-08-21T11:24:52.761Z,-83
2022-08-21T11:27:32.375Z,-84
2022-08-21T11:30:03.009Z,-84
2022-08-21T11:33:18.082Z,-82
2022-08-21T11:35:56.419Z,-83
2022-08-21T11:38:36.871Z,-83
2022-08-21T11:41:26.535Z,-82
2022-08-21T11:44:14.002Z,-82
2022-08-21T11:46:54.664Z,-81
2022-08-21T11:50:01.609Z,-82
2022-08-21T11:52:40.250Z,-83
2022-08-21T11:55:17.613Z,-82
2022-08-21T11:58:00.722Z,-83
2022-08-21T12:00:35.525Z,-83
2022-08-21T12:03:13.273Z,-83
2022-08-21T12:05:54.766Z,-83
2022-08-21T12:08:32.700Z,-83
2022-08-21T12:11:10.274Z,-83
2022-08-21T12:13:53.960Z,-82
2022-08-21T12:16:34.340Z,-83
2022-08-21T12:19:08.529Z,-82
2022-08-21T12:21:55.796Z,-82
2022-08-21T12:24:40.241Z,-83
2022-08-21T12:27:30.517Z,-82
2022-08-21T12:30:04.062Z,-83
2022-08-21T12:32:46.481Z,-82
2022-08-21T12:35:24.324Z,-82
2022-08-21T12:38:09.355Z,-82
2022-08-21T12:40:44.786Z,-82
2022-08-21T12:43:21.952Z,-82
2022-08-21T12:45:53.451Z,-82
2022-08-21T12:48:30.791Z,-82
2022-08-21T12:51:11.824Z,-82
2022-08-21T12:53:49.640Z,-82
2022-08-21T12:56:20.870Z,-82
2022-08-21T12:58:52.912Z,-81
2022-08-21T13:01:29.896Z,-81
2022-08-21T13:04:06.033Z,-83
2022-08-21T13:06:42.986Z,-82
2022-08-21T13:09:18.787Z,-82
2022-08-21T13:11:50.994Z,-81
2022-08-21T13:14:32.541Z,-81
2022-08-21T13:17:05.273Z,-81
2022-08-21T13:19:35.430Z,-81
2022-08-21T13:22:15.951Z,-81
2022-08-21T13:24:55.614Z,-82
2022-08-21T13:27:28.916Z,-82
2022-08-21T13:30:12.545Z,-82
2022-08-21T13:32:46.350Z,-81
2022-08-21T13:35:21.103Z,-83
2022-08-21T13:37:52.917Z,-82
2022-08-21T13:40:28.988Z,-82
2022-08-21T13:42:59.056Z,-82
2022-08-21T13:45:33.110Z,-82
2022-08-21T13:48:06.136Z,-82
2022-08-21T13:50:45.918Z,-82
2022-08-21T13:53:25.634Z,-82
2022-08-21T13:56:00.414Z,-82
2022-08-21T13:58:32.987Z,-82
2022-08-21T14:01:06.465Z,-82
2022-08-21T14:03:40.530Z,-82
2022-08-21T14:06:16.952Z,-82
2022-08-21T14:08:53.399Z,-78
2022-08-21T14:11:24.054Z,-78
2022-08-21T14:14:00.188Z,-77
2022-08-21T14:16:42.468Z,-78
2022-08-21T14:19:21.372Z,-78
2022-08-21T14:21:50.248Z,-78
2022-08-21T14:24:31.840Z,-78
2022-08-21T14:27:08.922Z,-78
2022-08-21T14:29:42.013Z,-77
2022-08-21T14:32:25.138Z,-78
2022-08-21T14:34:54.788Z,-78
2022-08-21T14:37:23.812Z,-78
2022-08-21T14:39:52.404Z,-77
2022-08-21T14:42:22.814Z,-77
2022-08-21T14:44:51.454Z,-77
2022-08-21T14:47:19.864Z,-77
2022-08-21T14:49:48.599Z,-78
2022-08-21T14:52:17.029Z,-77
2022-08-21T14:54:46.022Z,-77
2022-08-21T14:57:15.726Z,-77
2022-08-21T14:59:45.570Z,-78
2022-08-21T15:02:14.234Z,-78
2022-08-21T15:04:43.562Z,-78
2022-08-21T15:07:12.069Z,-78
2022-08-21T15:09:40.522Z,-78
2022-08-21T15:12:11.301Z,-78
2022-08-21T15:14:42.823Z,-78
2022-08-21T15:17:13.393Z,-78
2022-08-21T15:19:42.228Z,-78
2022-08-21T15:22:15.495Z,-78
2022-08-21T15:24:47.770Z,-78
2022-08-21T15:27:20.679Z,-78
2022-08-21T15:29:49.275Z,-78
2022-08-21T15:32:23.786Z,-78
2022-08-21T15:34:52.992Z,-79
2022-08-21T15:37:21.911Z,-78
2022-08-21T15:39:54.774Z,-78
2022-08-21T15:42:24.982Z,-78
2022-08-21T15:44:56.090Z,-76
2022-08-21T15:47:31.536Z,-76
2022-08-21T15:50:00.001Z,-77
2022-08-21T15:52:28.996Z,-78
2022-08-21T15:54:57.597Z,-78
2022-08-21T15:57:27.602Z,-77
2022-08-21T16:00:00.788Z,-78
2022-08-21T16:02:34.035Z,-78
2022-08-21T16:05:02.509Z,-78
2022-08-21T16:07:31.172Z,-78
2022-08-21T16:09:59.615Z,-78
2022-08-21T16:12:32.925Z,-79
2022-08-21T16:15:04.418Z,-76
2022-08-21T16:17:37.584Z,-77
2022-08-21T16:20:11.298Z,-78
2022-08-21T16:22:55.038Z,-78
2022-08-21T16:25:23.868Z,-78
2022-08-21T16:27:59.289Z,-78
2022-08-21T16:30:29.261Z,-78
2022-08-21T16:33:00.825Z,-79
2022-08-21T16:35:29.749Z,-79
2022-08-21T16:37:58.266Z,-78
2022-08-21T16:40:27.276Z,-78
2022-08-21T16:42:56.348Z,-77
2022-08-21T16:45:24.822Z,-78
2022-08-21T16:47:53.257Z,-79
2022-08-21T16:50:25.836Z,-79
2022-08-21T16:52:54.558Z,-79
2022-08-21T16:55:23.384Z,-79
2022-08-21T16:57:52.001Z,-79
2022-08-21T17:00:20.688Z,-79
2022-08-21T17:02:54.512Z,-78
2022-08-21T17:05:24.378Z,-80
2022-08-21T17:07:52.796Z,-80
2022-08-21T17:10:21.664Z,-79
2022-08-21T17:12:58.113Z,-83
2022-08-21T17:15:34.289Z,-78
2022-08-21T17:18:04.463Z,-78
2022-08-21T17:20:34.888Z,-79
2022-08-21T17:23:03.492Z,-79
2022-08-21T17:25:32.627Z,-80
2022-08-21T17:28:01.424Z,-79
2022-08-21T17:30:29.951Z,-79
2022-08-21T17:33:01.310Z,-81
2022-08-21T17:35:29.947Z,-80
2022-08-21T17:37:59.756Z,-80
2022-08-21T17:40:28.211Z,-80
2022-08-21T17:42:57.977Z,-82
2022-08-21T17:45:27.189Z,-81
2022-08-21T17:47:55.580Z,-81
2022-08-21T17:50:25.780Z,-80
2022-08-21T17:52:54.500Z,-81
2022-08-21T17:55:24.771Z,-81
2022-08-21T17:57:55.356Z,-80
2022-08-21T18:00:26.193Z,-80
2022-08-21T18:03:03.882Z,-78
2022-08-21T18:05:32.847Z,-79
2022-08-21T18:08:01.290Z,-79
2022-08-21T18:10:31.639Z,-79
2022-08-21T18:13:04.040Z,-81
2022-08-21T18:15:33.033Z,-80
2022-08-21T18:18:02.101Z,-80
2022-08-21T18:20:30.638Z,-78
2022-08-21T18:23:00.362Z,-81
2022-08-21T18:25:30.936Z,-77
2022-08-21T18:28:01.551Z,-78
2022-08-21T18:30:30.263Z,-79
2022-08-21T18:32:58.957Z,-79
2022-08-21T18:35:28.192Z,-80
2022-08-21T18:38:01.050Z,-79
2022-08-21T18:40:34.449Z,-81
2022-08-21T18:43:04.584Z,-81
2022-08-21T18:45:37.583Z,-80
2022-08-21T18:48:10.740Z,-80
2022-08-21T18:50:43.078Z,-80
2022-08-21T18:53:27.315Z,-80
2022-08-21T18:56:05.204Z,-82
2022-08-21T18:58:35.325Z,-81
2022-08-21T19:01:03.784Z,-81
2022-08-21T19:03:34.332Z,-81
2022-08-21T19:06:02.908Z,-81
2022-08-21T19:08:31.341Z,-82
2022-08-21T19:11:02.734Z,-82
2022-08-21T19:13:33.886Z,-82
2022-08-21T19:16:05.520Z,-82
2022-08-21T19:18:42.276Z,-82
2022-08-21T19:21:11.222Z,-81
2022-08-21T19:23:40.344Z,-82
2022-08-21T19:26:13.114Z,-80
2022-08-21T19:28:46.066Z,-79
2022-08-21T19:31:19.742Z,-81
2022-08-21T19:34:01.850Z,-81
2022-08-21T19:36:30.581Z,-82
2022-08-21T19:39:08.167Z,-81
2022-08-21T19:41:45.377Z,-81
2022-08-21T19:44:20.474Z,-81
2022-08-21T19:46:52.626Z,-82
2022-08-21T19:49:26.898Z,-83
2022-08-21T19:51:55.626Z,-83
2022-08-21T19:54:28.007Z,-83
2022-08-21T19:57:03.867Z,-82
2022-08-21T19:59:34.299Z,-82
2022-08-21T20:02:02.949Z,-81
2022-08-21T20:04:31.642Z,-83
2022-08-21T20:07:00.436Z,-82
2022-08-21T20:09:29.392Z,-82
2022-08-21T20:12:10.507Z,-83
2022-08-21T20:14:45.957Z,-82
2022-08-21T20:17:18.629Z,-83
2022-08-21T20:19:54.407Z,-83
2022-08-21T20:22:38.461Z,-84
2022-08-21T20:25:08.194Z,-83
2022-08-21T20:27:41.106Z,-83
2022-08-21T20:30:11.818Z,-83
2022-08-21T20:32:40.931Z,-83
2022-08-21T20:35:12.334Z,-84
2022-08-21T20:37:43.453Z,-83
2022-08-21T20:40:16.241Z,-83
2022-08-21T20:42:55.721Z,-82
2022-08-21T20:45:29.088Z,-83
2022-08-21T20:48:03.966Z,-83
2022-08-21T20:50:38.554Z,-82
2022-08-21T20:53:14.511Z,-82
2022-08-21T20:55:49.362Z,-82
2022-08-21T20:58:32.309Z,-81
2022-08-21T21:01:06.285Z,-81
2022-08-21T21:03:42.266Z,-82
2022-08-21T21:06:18.767Z,-82
2022-08-21T21:08:53.575Z,-82
2022-08-21T21:14:25.216Z,-81
2022-08-21T21:16:59.660Z,-82
2022-08-21T21:19:38.255Z,-82
2022-08-21T21:22:16.450Z,-81
2022-08-21T21:24:57.241Z,-82
2022-08-21T21:27:36.273Z,-81
2022-08-21T21:30:12.370Z,-81
2022-08-21T21:33:00.692Z,-81
2022-08-21T21:35:38.705Z,-81
2022-08-21T21:38:17.870Z,-80
2022-08-21T21:41:01.459Z,-81
2022-08-21T21:43:58.020Z,-83
2022-08-21T21:50:04.724Z,-83
2022-08-21T21:53:12.455Z,-81
2022-08-21T21:56:07.011Z,-83
2022-08-21T21:59:17.923Z,-82
2022-08-21T22:01:57.583Z,-83
2022-08-21T22:04:39.352Z,-82
2022-08-21T22:07:33.650Z,-82
2022-08-21T22:13:26.129Z,-82
2022-08-21T22:15:56.577Z,-84
2022-08-21T22:18:33.875Z,-82
2022-08-21T22:21:11.016Z,-81
2022-08-21T22:23:49.444Z,-82
2022-08-21T22:26:38.224Z,-82
2022-08-21T22:29:16.132Z,-82
2022-08-21T22:31:46.618Z,-82
2022-08-21T22:34:20.933Z,-83
2022-08-21T22:37:01.038Z,-82
2022-08-21T22:39:38.989Z,-83
2022-08-21T22:42:13.629Z,-82
2022-08-21T22:44:53.169Z,-82
2022-08-21T22:47:24.952Z,-83
2022-08-21T22:50:04.344Z,-83
2022-08-21T22:52:38.438Z,-82
2022-08-21T22:55:25.372Z,-83
2022-08-21T22:58:08.852Z,-82
2022-08-21T23:00:52.358Z,-83
2022-08-21T23:03:32.599Z,-82
2022-08-21T23:06:12.911Z,-82
2022-08-21T23:08:44.078Z,-81
2022-08-21T23:11:23.395Z,-83
2022-08-21T23:13:56.528Z,-82
2022-08-21T23:16:48.661Z,-83
2022-08-21T23:19:38.208Z,-81
2022-08-21T23:22:32.518Z,-82
2022-08-21T23:25:25.428Z,-82
2022-08-21T23:28:05.241Z,-82
2022-08-21T23:30:46.836Z,-82
2022-08-21T23:33:59.992Z,-82
2022-08-21T23:37:03.617Z,-83
2022-08-21T23:39:54.773Z,-83
2022-08-21T23:42:49.494Z,-81
2022-08-21T23:45:34.552Z,-82
2022-08-21T23:48:24.122Z,-83
2022-08-21T23:51:04.254Z,-83
2022-08-21T23:53:52.625Z,-82
2022-08-21T23:56:44.751Z,-82
2022-08-21T23:59:28.306Z,-82
